Time;durP1;ratioP1;P1;durP2;ratioP2;P2;SDS_P1;SDS_P2;PMS_P1;PMS_P2;Temp;Humidity;BMP_temperature;BMP_pressure;BME280_temperature;BME280_humidity;BME280_pressure;Samples;Min_cycle;Max_cycle;Signal;HPM_P1;HPM_P2
2021/10/24 00:01:58;;;;;;;1.38;1.02;;;;;;;12.99;76.54;100412.28;5038813;28;20044;-81
2021/10/24 00:04:25;;;;;;;1.13;0.20;;;;;;;13.01;76.34;100404.38;5043931;28;20045;-80
2021/10/24 00:06:51;;;;;;;1.38;0.20;;;;;;;13.01;76.38;100398.81;5060456;28;20043;-81
2021/10/24 00:09:18;;;;;;;0.40;0.10;;;;;;;13.00;76.36;100389.69;5045032;28;20048;-81
2021/10/24 00:11:45;;;;;;;0.10;0.00;;;;;;;13.02;76.24;100392.91;5040725;28;20068;-81
2021/10/24 00:14:12;;;;;;;0.88;0.20;;;;;;;13.04;76.69;100395.31;5045824;28;20041;-80
2021/10/24 00:16:38;;;;;;;0.40;0.20;;;;;;;13.03;76.65;100386.16;5042843;28;20493;-80
2021/10/24 00:19:05;;;;;;;3.38;0.10;;;;;;;13.02;77.03;100386.56;5042891;28;20048;-80
2021/10/24 00:21:32;;;;;;;0.70;0.20;;;;;;;12.98;77.03;100392.03;5063291;28;20480;-81
2021/10/24 00:23:59;;;;;;;0.70;0.30;;;;;;;12.94;77.78;100387.59;5058231;28;20072;-81
2021/10/24 00:26:26;;;;;;;2.58;0.40;;;;;;;12.90;78.08;100387.53;5061622;28;20076;-80
2021/10/24 00:28:55;;;;;;;3.50;0.40;;;;;;;12.82;78.29;100372.69;5041650;28;20052;-81
2021/10/24 00:31:22;;;;;;;1.83;0.40;;;;;;;12.78;79.10;100379.38;5060712;28;20044;-81
2021/10/24 00:33:50;;;;;;;1.90;0.40;;;;;;;12.72;79.25;100367.75;5062263;28;20052;-80
2021/10/24 00:36:20;;;;;;;1.45;0.50;;;;;;;12.67;79.92;100365.28;5034873;28;20049;-81
2021/10/24 00:38:47;;;;;;;1.77;0.40;;;;;;;12.63;80.29;100364.41;5039657;28;20052;-80
2021/10/24 00:41:15;;;;;;;8.07;0.70;;;;;;;12.62;80.32;100359.22;5059784;28;20045;-80
2021/10/24 00:43:42;;;;;;;1.05;0.50;;;;;;;12.60;80.55;100347.69;5063115;28;20045;-80
2021/10/24 00:46:09;;;;;;;1.67;0.22;;;;;;;12.54;81.10;100347.19;5057281;28;20110;-80
2021/10/24 00:48:53;;;;;;;2.72;0.80;;;;;;;12.52;81.16;100348.72;5063299;28;20044;-80
2021/10/24 00:51:20;;;;;;;2.38;0.40;;;;;;;12.49;81.51;100330.84;5064116;28;20131;-80
2021/10/24 00:53:47;;;;;;;2.92;0.50;;;;;;;12.47;81.89;100327.59;5064747;28;20036;-81
2021/10/24 00:56:14;;;;;;;1.30;0.47;;;;;;;12.46;81.90;100303.00;5037673;28;20048;-80
2021/10/24 00:58:41;;;;;;;1.23;0.85;;;;;;;12.45;82.19;100304.97;5045176;28;20036;-80
2021/10/24 01:01:08;;;;;;;1.70;0.47;;;;;;;12.46;82.16;100297.44;5060460;28;20059;-80
2021/10/24 01:03:36;;;;;;;2.00;0.45;;;;;;;12.44;82.43;100295.03;5046426;28;20059;-81
2021/10/24 01:06:04;;;;;;;4.68;0.40;;;;;;;12.44;82.46;100286.72;5052708;28;20065;-80
2021/10/24 01:08:35;;;;;;;3.08;0.32;;;;;;;12.44;82.59;100294.22;5060298;28;20040;-80
2021/10/24 01:11:02;;;;;;;2.28;0.82;;;;;;;12.47;82.52;100313.72;5061989;28;20040;-81
2021/10/24 01:13:31;;;;;;;1.15;0.20;;;;;;;12.47;82.74;100312.94;5044438;28;20044;-81
2021/10/24 01:16:16;;;;;;;3.28;0.50;;;;;;;12.50;82.92;100306.63;5041713;28;20030;-81
2021/10/24 01:18:44;;;;;;;2.65;0.30;;;;;;;12.52;82.58;100304.31;5042981;28;20127;-80
2021/10/24 01:21:11;;;;;;;1.80;0.22;;;;;;;12.54;82.36;100291.66;5045348;28;20492;-80
2021/10/24 01:23:38;;;;;;;2.00;0.17;;;;;;;12.58;82.30;100292.50;5056846;28;20039;-80
2021/10/24 01:26:06;;;;;;;0.88;0.20;;;;;;;12.61;82.08;100297.31;5027347;28;20113;-81
2021/10/24 01:28:34;;;;;;;0.30;0.30;;;;;;;12.64;82.09;100291.03;5044009;28;20063;-81
2021/10/24 01:31:01;;;;;;;1.23;0.20;;;;;;;12.66;81.98;100293.44;5060041;28;20046;-80
2021/10/24 01:33:28;;;;;;;2.97;0.28;;;;;;;12.68;82.05;100286.31;5059287;28;20044;-81
2021/10/24 01:36:01;;;;;;;1.38;0.20;;;;;;;12.72;82.10;100287.22;5041072;28;20048;-80
2021/10/24 01:38:28;;;;;;;0.17;0.17;;;;;;;12.77;81.79;100294.41;5061780;28;20127;-80
2021/10/24 01:40:56;;;;;;;2.67;0.25;;;;;;;12.80;81.53;100288.94;5061460;28;20048;-81
2021/10/24 01:43:24;;;;;;;0.70;0.10;;;;;;;12.82;81.64;100283.81;5057831;28;20045;-80
2021/10/24 01:45:51;;;;;;;0.50;0.20;;;;;;;12.86;81.45;100283.88;5056937;28;20491;-80
2021/10/24 01:48:19;;;;;;;2.05;0.30;;;;;;;12.89;81.46;100283.13;5060028;28;20044;-80
2021/10/24 01:50:47;;;;;;;0.57;0.30;;;;;;;12.92;81.36;100274.03;5062196;28;20464;-80
2021/10/24 01:53:26;;;;;;;2.67;1.05;;;;;;;12.94;81.53;100271.72;5060275;28;20131;-81
2021/10/24 01:55:54;;;;;;;1.92;0.30;;;;;;;12.96;81.21;100258.22;5043814;28;20040;-81
2021/10/24 01:58:21;;;;;;;6.13;0.93;;;;;;;13.00;81.01;100269.41;5028939;28;20048;-81
2021/10/24 02:00:49;;;;;;;2.13;0.40;;;;;;;13.01;80.97;100252.34;5052607;28;20047;-80
2021/10/24 02:03:17;;;;;;;1.08;0.30;;;;;;;13.04;80.92;100267.47;5045438;28;20052;-80
2021/10/24 02:05:44;;;;;;;2.17;0.40;;;;;;;13.07;80.71;100270.34;5040851;28;20048;-80
2021/10/24 02:08:10;;;;;;;4.13;1.50;;;;;;;13.09;80.93;100278.31;5044631;28;20044;-81
2021/10/24 02:10:38;;;;;;;2.92;0.55;;;;;;;13.10;80.73;100268.81;5059421;28;20132;-81
2021/10/24 02:13:05;;;;;;;1.25;0.40;;;;;;;13.11;80.80;100259.28;5061986;28;20031;-81
2021/10/24 02:15:33;;;;;;;1.85;0.70;;;;;;;13.11;80.90;100275.94;5054404;28;20123;-80
2021/10/24 02:18:00;;;;;;;0.95;0.20;;;;;;;13.10;81.03;100269.63;5064016;28;20043;-80
2021/10/24 02:20:27;;;;;;;1.02;0.20;;;;;;;13.12;80.59;100266.44;5043878;28;20045;-81
2021/10/24 02:22:55;;;;;;;4.72;0.30;;;;;;;13.12;80.90;100260.88;5054042;28;20051;-80
2021/10/24 02:25:22;;;;;;;0.73;0.17;;;;;;;13.12;80.98;100266.44;5053819;28;20049;-80
2021/10/24 02:27:50;;;;;;;1.30;0.35;;;;;;;13.12;80.97;100261.69;5046036;28;20045;-81
2021/10/24 02:30:17;;;;;;;0.85;0.20;;;;;;;13.13;81.25;100260.50;5065129;28;20056;-80
2021/10/24 02:32:44;;;;;;;0.80;0.20;;;;;;;13.15;80.97;100268.47;5047249;28;20049;-81
2021/10/24 02:35:12;;;;;;;0.55;0.20;;;;;;;13.16;80.90;100272.84;5062146;28;20043;-80
2021/10/24 02:37:40;;;;;;;0.65;0.20;;;;;;;13.17;81.01;100268.91;5046815;28;20039;-81
2021/10/24 02:40:08;;;;;;;4.95;0.35;;;;;;;13.17;80.87;100269.72;5060139;28;20040;-81
2021/10/24 02:42:35;;;;;;;0.75;0.10;;;;;;;13.17;81.17;100268.91;5046204;28;20055;-80
2021/10/24 02:45:04;;;;;;;3.80;0.85;;;;;;;13.15;81.32;100271.25;5061691;28;20477;-80
2021/10/24 02:47:30;;;;;;;2.13;0.30;;;;;;;13.13;81.68;100256.94;5064305;28;20135;-80
2021/10/24 02:49:57;;;;;;;3.10;0.20;;;;;;;13.12;81.80;100267.25;5060760;28;20041;-80
2021/10/24 02:52:24;;;;;;;1.10;0.10;;;;;;;13.11;81.95;100267.59;5064667;28;20127;-81
2021/10/24 02:54:51;;;;;;;1.85;0.10;;;;;;;13.09;82.13;100261.63;5061204;28;20040;-80
2021/10/24 02:57:18;;;;;;;0.20;0.20;;;;;;;13.09;82.18;100269.97;5042868;28;20071;-80
2021/10/24 02:59:45;;;;;;;0.95;0.25;;;;;;;13.10;82.41;100257.69;5061263;28;20044;-80
2021/10/24 03:02:12;;;;;;;0.98;0.63;;;;;;;13.08;82.41;100260.03;5058214;28;20115;-80
2021/10/24 03:04:38;;;;;;;0.35;0.30;;;;;;;13.08;82.43;100257.28;5062053;28;20075;-80
2021/10/24 03:07:05;;;;;;;2.65;0.65;;;;;;;13.05;82.79;100257.97;5061828;28;20045;-80
2021/10/24 03:09:32;;;;;;;0.73;0.32;;;;;;;13.02;83.19;100250.38;5046935;28;20032;-80
2021/10/24 03:11:59;;;;;;;0.30;0.22;;;;;;;13.00;83.33;100255.53;5027085;28;20419;-80
2021/10/24 03:14:25;;;;;;;0.10;0.10;;;;;;;12.98;83.25;100249.50;5061415;28;20121;-81
2021/10/24 03:16:54;;;;;;;1.55;0.10;;;;;;;12.97;83.81;100245.16;5062027;28;20098;-79
2021/10/24 03:19:23;;;;;;;0.73;0.10;;;;;;;12.94;83.81;100241.13;5065803;28;20124;-80
2021/10/24 03:21:50;;;;;;;1.25;0.20;;;;;;;12.95;83.74;100255.81;5044121;28;20044;-80
2021/10/24 03:24:18;;;;;;;0.45;0.00;;;;;;;12.94;84.07;100260.59;5045194;28;20063;-80
2021/10/24 03:26:45;;;;;;;1.92;0.20;;;;;;;12.95;84.20;100255.81;5061980;28;20073;-80
2021/10/24 03:29:12;;;;;;;0.10;0.00;;;;;;;12.93;84.44;100242.31;5043167;28;20110;-80
2021/10/24 03:31:39;;;;;;;0.93;0.20;;;;;;;12.94;84.18;100245.88;5054300;28;20235;-80
2021/10/24 03:34:06;;;;;;;2.00;0.10;;;;;;;12.93;84.41;100242.31;5062158;28;20052;-81
2021/10/24 03:36:32;;;;;;;0.65;0.10;;;;;;;12.95;84.67;100239.13;5060908;28;20044;-80
2021/10/24 03:38:59;;;;;;;0.98;0.10;;;;;;;12.95;84.49;100239.94;5046996;28;20124;-81
2021/10/24 03:41:26;;;;;;;0.35;0.10;;;;;;;12.97;84.70;100259.84;5037939;28;20051;-80
2021/10/24 03:43:53;;;;;;;0.30;0.00;;;;;;;12.99;84.52;100253.91;5065478;28;20535;-80
2021/10/24 03:46:19;;;;;;;0.00;0.00;;;;;;;12.99;84.72;100253.91;5060670;28;20057;-80
2021/10/24 03:48:46;;;;;;;0.10;0.00;;;;;;;13.00;84.49;100255.53;5035081;28;20059;-80
2021/10/24 03:51:13;;;;;;;0.35;0.10;;;;;;;13.00;84.27;100247.97;5043877;28;20036;-80
2021/10/24 03:53:40;;;;;;;2.55;0.10;;;;;;;13.01;84.42;100237.66;5045785;28;20143;-80
2021/10/24 03:56:06;;;;;;;0.35;0.00;;;;;;;12.98;84.56;100232.84;5041282;28;20590;-80
2021/10/24 03:58:33;;;;;;;1.38;0.10;;;;;;;12.95;84.43;100225.25;5062493;28;20036;-80
2021/10/24 04:01:00;;;;;;;0.50;0.10;;;;;;;12.89;84.49;100238.69;5061975;28;20085;-81
2021/10/24 04:03:27;;;;;;;1.30;0.10;;;;;;;12.83;84.40;100229.84;5062723;28;20033;-80
2021/10/24 04:05:53;;;;;;;1.27;0.10;;;;;;;12.78;84.42;100230.19;5041915;28;20515;-80
2021/10/24 04:08:20;;;;;;;0.90;0.10;;;;;;;12.73;84.47;100233.25;5057237;28;20484;-80
2021/10/24 04:10:47;;;;;;;0.15;0.10;;;;;;;12.73;84.52;100230.47;5057973;28;20060;-80
2021/10/24 04:13:14;;;;;;;1.38;0.25;;;;;;;12.76;84.71;100231.72;5060457;28;20124;-80
2021/10/24 04:15:41;;;;;;;1.95;0.10;;;;;;;12.78;84.54;100227.41;5061827;28;20049;-80
2021/10/24 04:18:08;;;;;;;3.03;0.30;;;;;;;12.78;84.52;100219.06;5045278;28;20126;-80
2021/10/24 04:20:35;;;;;;;1.75;1.02;;;;;;;12.78;84.30;100224.63;5062759;28;20129;-81
2021/10/24 04:23:02;;;;;;;2.17;0.20;;;;;;;12.77;84.37;100225.78;5059681;28;20048;-80
2021/10/24 04:25:29;;;;;;;0.10;0.10;;;;;;;12.75;84.29;100219.00;5057213;28;20051;-80
2021/10/24 04:27:56;;;;;;;1.13;0.22;;;;;;;12.74;84.34;100214.59;5062081;28;20121;-80
2021/10/24 04:30:23;;;;;;;2.13;0.30;;;;;;;12.70;84.18;100222.09;5061648;28;20045;-80
2021/10/24 04:32:50;;;;;;;0.63;0.20;;;;;;;12.64;84.29;100218.81;5061174;28;20047;-80
2021/10/24 04:35:17;;;;;;;2.10;0.40;;;;;;;12.63;84.57;100224.72;5063555;28;20043;-80
2021/10/24 04:37:45;;;;;;;1.73;0.20;;;;;;;12.61;84.73;100227.09;5044642;28;20043;-80
2021/10/24 04:40:12;;;;;;;0.50;0.32;;;;;;;12.60;84.83;100212.41;5061488;28;20059;-80
2021/10/24 04:42:39;;;;;;;1.35;0.30;;;;;;;12.58;84.63;100223.09;5060812;28;20124;-80
2021/10/24 04:45:07;;;;;;;3.13;0.32;;;;;;;12.54;84.60;100213.91;5045677;28;20123;-80
2021/10/24 04:47:35;;;;;;;1.17;0.20;;;;;;;12.52;84.73;100209.91;5056495;28;20059;-80
2021/10/24 04:50:06;;;;;;;1.38;0.25;;;;;;;12.50;84.58;100210.25;5055967;28;20120;-79
2021/10/24 04:52:32;;;;;;;1.38;0.20;;;;;;;12.48;84.50;100209.81;5055447;28;20037;-80
2021/10/24 04:54:59;;;;;;;1.50;0.10;;;;;;;12.47;84.55;100213.75;5059669;28;20143;-80
2021/10/24 04:57:26;;;;;;;1.17;0.10;;;;;;;12.44;84.25;100214.53;5060616;28;20119;-80
2021/10/24 04:59:53;;;;;;;0.60;0.20;;;;;;;12.42;84.63;100221.59;5063225;28;20039;-80
2021/10/24 05:02:19;;;;;;;2.10;0.20;;;;;;;12.38;84.42;100221.56;5038600;28;20129;-80
2021/10/24 05:04:46;;;;;;;0.57;0.10;;;;;;;12.36;84.39;100212.00;5062321;28;20159;-80
2021/10/24 05:07:13;;;;;;;1.70;0.20;;;;;;;12.32;84.57;100206.38;5044837;28;20045;-80
2021/10/24 05:09:40;;;;;;;0.55;0.25;;;;;;;12.30;84.46;100208.72;5059208;28;20514;-80
2021/10/24 05:12:07;;;;;;;1.35;0.30;;;;;;;12.27;84.45;100215.00;5058209;28;20094;-80
2021/10/24 05:14:34;;;;;;;2.50;0.47;;;;;;;12.21;84.38;100211.72;5056807;28;20076;-80
2021/10/24 05:17:00;;;;;;;2.42;0.40;;;;;;;12.20;84.75;100203.78;5044924;28;20123;-78
2021/10/24 05:19:27;;;;;;;4.10;0.40;;;;;;;12.20;84.94;100206.56;5042421;28;20037;-78
2021/10/24 05:21:54;;;;;;;5.78;1.58;;;;;;;12.16;85.09;100195.38;5058351;28;20047;-78
2021/10/24 05:24:21;;;;;;;7.05;0.55;;;;;;;12.16;85.23;100200.13;5059728;28;20556;-78
2021/10/24 05:26:47;;;;;;;4.40;0.40;;;;;;;12.15;85.11;100196.53;5043085;28;20048;-78
2021/10/24 05:29:14;;;;;;;3.55;0.70;;;;;;;12.15;84.97;100196.53;5038670;28;20044;-78
2021/10/24 05:31:41;;;;;;;3.88;0.50;;;;;;;12.17;84.96;100194.22;5057144;28;20044;-80
2021/10/24 05:34:08;;;;;;;4.15;0.60;;;;;;;12.17;84.80;100198.97;5062629;28;20123;-80
2021/10/24 05:36:35;;;;;;;8.20;1.90;;;;;;;12.15;84.85;100202.09;5057951;28;20051;-80
2021/10/24 05:39:02;;;;;;;1.92;0.70;;;;;;;12.16;85.00;100202.91;5044017;28;20144;-80
2021/10/24 05:41:31;;;;;;;3.80;0.63;;;;;;;12.17;84.70;100201.75;5058213;28;20135;-80
2021/10/24 05:43:58;;;;;;;4.43;1.30;;;;;;;12.19;85.09;100202.97;5062823;28;20045;-78
2021/10/24 05:46:25;;;;;;;3.92;1.05;;;;;;;12.21;84.97;100205.38;5042560;28;20067;-78
2021/10/24 05:48:52;;;;;;;7.45;1.20;;;;;;;12.20;84.86;100199.00;5061373;28;20036;-78
2021/10/24 05:51:19;;;;;;;8.18;1.25;;;;;;;12.19;84.60;100196.63;5059458;28;20750;-78
2021/10/24 05:53:46;;;;;;;5.10;1.02;;;;;;;12.19;84.54;100202.97;5041385;28;20048;-78
2021/10/24 05:56:13;;;;;;;2.05;0.70;;;;;;;12.17;84.54;100191.44;5060383;28;20032;-79
2021/10/24 05:58:39;;;;;;;7.18;2.50;;;;;;;12.17;84.53;100193.41;5062006;28;20534;-78
2021/10/24 06:01:06;;;;;;;7.93;2.28;;;;;;;12.16;85.03;100197.34;5040775;28;20074;-78
2021/10/24 06:03:33;;;;;;;7.65;1.10;;;;;;;12.16;84.75;100189.03;5064045;28;20040;-78
2021/10/24 06:06:00;;;;;;;7.28;0.80;;;;;;;12.16;84.35;100194.56;5027733;28;20499;-78
2021/10/24 06:08:27;;;;;;;5.80;1.13;;;;;;;12.15;84.32;100196.53;5064545;28;20036;-78
2021/10/24 06:11:02;;;;;;;5.40;1.23;;;;;;;12.14;84.42;100206.06;5044394;28;20040;-78
2021/10/24 06:13:29;;;;;;;5.30;1.00;;;;;;;12.10;84.35;100198.81;5047242;28;20773;-78
2021/10/24 06:15:56;;;;;;;7.32;1.52;;;;;;;12.08;84.46;100196.44;5061481;28;20127;-78
2021/10/24 06:18:23;;;;;;;15.13;3.50;;;;;;;12.07;84.52;100197.59;5065035;28;20369;-78
2021/10/24 06:20:50;;;;;;;5.63;1.00;;;;;;;12.06;84.41;100197.97;5060479;28;20066;-79
2021/10/24 06:23:17;;;;;;;4.53;1.13;;;;;;;12.05;84.16;100201.91;5064338;28;20535;-78
2021/10/24 06:25:43;;;;;;;7.03;1.23;;;;;;;12.03;84.40;100198.69;5062304;28;20395;-78
2021/10/24 06:28:15;;;;;;;4.15;0.90;;;;;;;12.00;84.41;100203.00;5060801;28;20044;-78
2021/10/24 06:30:43;;;;;;;8.38;1.95;;;;;;;11.99;84.35;100201.41;5042044;28;20043;-78
2021/10/24 06:33:10;;;;;;;5.88;1.77;;;;;;;11.96;84.30;100199.38;5062812;28;20055;-78
2021/10/24 06:35:38;;;;;;;4.85;1.20;;;;;;;11.97;84.28;100200.16;5066215;28;20123;-78
2021/10/24 06:38:04;;;;;;;3.85;0.90;;;;;;;11.96;84.49;100198.56;5062934;28;20120;-78
2021/10/24 06:40:31;;;;;;;7.32;1.25;;;;;;;11.95;84.57;100185.88;5045115;28;20055;-77
2021/10/24 06:42:58;;;;;;;6.03;1.15;;;;;;;11.97;84.32;100177.97;5046660;28;20040;-78
2021/10/24 06:45:25;;;;;;;11.52;1.42;;;;;;;11.98;84.47;100185.13;5064513;28;20456;-78
2021/10/24 06:47:52;;;;;;;5.93;1.77;;;;;;;11.99;84.50;100197.84;5063815;28;20052;-78
2021/10/24 06:50:19;;;;;;;10.13;1.33;;;;;;;11.98;84.38;100191.50;5062004;28;20052;-78
2021/10/24 06:52:46;;;;;;;4.22;1.00;;;;;;;11.98;84.36;100185.94;5048608;28;20047;-79
2021/10/24 06:55:12;;;;;;;14.57;1.63;;;;;;;11.99;84.30;100195.06;5053592;28;20045;-78
2021/10/24 06:57:52;;;;;;;12.15;1.63;;;;;;;11.99;84.23;100201.41;5064138;28;20217;-79
2021/10/24 07:00:25;;;;;;;12.48;3.67;;;;;;;11.98;84.34;100193.44;5060659;28;20195;-78
2021/10/24 07:02:52;;;;;;;9.75;1.38;;;;;;;11.99;84.10;100195.06;5042323;28;20119;-78
2021/10/24 07:05:20;;;;;;;7.88;1.20;;;;;;;12.01;83.99;100195.50;5063480;28;20644;-78
2021/10/24 07:07:47;;;;;;;7.57;1.23;;;;;;;11.99;83.86;100192.28;5044469;28;20044;-78
2021/10/24 07:10:16;;;;;;;8.68;1.23;;;;;;;11.99;83.98;100195.06;5055710;28;20460;-79
2021/10/24 07:12:42;;;;;;;9.88;1.05;;;;;;;11.99;83.91;100206.16;5039624;28;20063;-77
2021/10/24 07:15:10;;;;;;;11.48;1.98;;;;;;;11.99;83.86;100206.94;5045806;28;20029;-79
2021/10/24 07:17:37;;;;;;;5.05;1.50;;;;;;;11.99;83.92;100201.41;5048443;28;20090;-78
2021/10/24 07:20:05;;;;;;;8.55;1.95;;;;;;;11.99;83.91;100209.72;5064028;28;20044;-78
2021/10/24 07:22:32;;;;;;;4.40;1.40;;;;;;;12.00;83.98;100213.31;5062344;28;20401;-78
2021/10/24 07:25:00;;;;;;;6.20;1.23;;;;;;;12.02;83.91;100217.31;5065425;28;20049;-78
2021/10/24 07:27:26;;;;;;;5.70;1.60;;;;;;;12.03;83.63;100207.81;5063693;28;20131;-78
2021/10/24 07:29:53;;;;;;;6.32;1.00;;;;;;;12.04;83.79;100214.19;5059873;28;20481;-78
2021/10/24 07:32:21;;;;;;;7.88;1.23;;;;;;;12.06;83.83;100204.31;5043591;28;20102;-79
2021/10/24 07:34:47;;;;;;;13.73;1.90;;;;;;;12.09;83.56;100216.66;5033755;28;20037;-84
2021/10/24 07:37:14;;;;;;;8.85;1.23;;;;;;;12.13;83.55;100225.84;5041561;28;20064;-79
2021/10/24 07:39:42;;;;;;;8.48;1.45;;;;;;;12.14;83.73;100211.63;5062255;28;20051;-79
2021/10/24 07:42:12;;;;;;;5.65;1.60;;;;;;;12.19;83.56;100207.72;5045772;28;20407;-79
2021/10/24 07:44:39;;;;;;;5.72;1.65;;;;;;;12.23;83.57;100208.59;5044597;28;20039;-79
2021/10/24 07:47:06;;;;;;;13.90;3.33;;;;;;;12.27;83.42;100215.00;5064434;28;20080;-79
2021/10/24 07:49:33;;;;;;;6.97;2.13;;;;;;;12.31;83.44;100217.84;5041375;28;20040;-79
2021/10/24 07:52:00;;;;;;;13.48;1.88;;;;;;;12.35;83.29;100221.47;5037798;28;20488;-79
2021/10/24 07:54:27;;;;;;;11.40;1.52;;;;;;;12.36;83.34;100232.22;5053861;28;20528;-79
2021/10/24 07:56:54;;;;;;;13.00;2.55;;;;;;;12.36;83.22;100228.66;5059893;28;20119;-79
2021/10/24 07:59:20;;;;;;;7.72;1.30;;;;;;;12.38;83.23;100221.56;5062946;28;20054;-79
2021/10/24 08:01:47;;;;;;;8.23;1.27;;;;;;;12.39;83.21;100236.25;5053998;28;20030;-78
2021/10/24 08:04:15;;;;;;;7.03;1.80;;;;;;;12.39;83.22;100233.47;5046317;28;20439;-79
2021/10/24 08:06:47;;;;;;;10.10;2.28;;;;;;;12.40;83.19;100241.41;5039528;28;20886;-79
2021/10/24 08:09:14;;;;;;;12.10;1.52;;;;;;;12.40;82.90;100241.41;5043386;28;20080;-79
2021/10/24 08:11:43;;;;;;;10.52;1.70;;;;;;;12.40;82.87;100237.81;5062471;28;20044;-79
2021/10/24 08:14:11;;;;;;;9.95;1.70;;;;;;;12.42;82.86;100236.28;5043636;28;20135;-79
2021/10/24 08:16:40;;;;;;;8.95;2.15;;;;;;;12.42;82.80;100233.50;5045511;28;20045;-79
2021/10/24 08:19:07;;;;;;;10.52;1.30;;;;;;;12.45;82.83;100248.63;5039607;28;20044;-79
2021/10/24 08:21:35;;;;;;;6.45;1.98;;;;;;;12.43;82.75;100254.56;5058480;28;20492;-79
2021/10/24 08:24:02;;;;;;;13.82;3.60;;;;;;;12.44;82.77;100250.63;5040489;28;20044;-78
2021/10/24 08:26:30;;;;;;;9.80;1.67;;;;;;;12.45;82.82;100243.06;5042087;28;20040;-79
2021/10/24 08:28:58;;;;;;;11.23;2.45;;;;;;;12.45;82.75;100248.63;5026295;28;20136;-79
2021/10/24 08:31:26;;;;;;;8.27;1.85;;;;;;;12.45;82.95;100266.09;5063507;28;20045;-79
2021/10/24 08:33:53;;;;;;;9.45;1.63;;;;;;;12.46;82.86;100251.03;5046348;28;20037;-78
2021/10/24 08:36:21;;;;;;;8.90;2.00;;;;;;;12.47;82.74;100260.19;5053898;28;20050;-78
2021/10/24 08:38:48;;;;;;;14.10;2.25;;;;;;;12.45;82.84;100249.44;5062608;28;20040;-78
2021/10/24 08:41:22;;;;;;;11.98;3.38;;;;;;;12.44;82.91;100253.41;5059851;28;20048;-79
2021/10/24 08:43:53;;;;;;;14.50;2.33;;;;;;;12.43;82.71;100250.97;5044955;28;20038;-79
2021/10/24 08:46:21;;;;;;;16.67;1.65;;;;;;;12.44;83.06;100258.16;5035465;28;20128;-80
2021/10/24 08:48:49;;;;;;;8.50;1.83;;;;;;;12.46;83.11;100251.03;5060208;28;20396;-80
2021/10/24 08:51:17;;;;;;;21.23;2.92;;;;;;;12.50;82.86;100251.91;5036016;28;20049;-80
2021/10/24 08:53:48;;;;;;;9.95;1.90;;;;;;;12.53;82.98;100245.59;5058785;28;20051;-80
2021/10/24 08:56:23;;;;;;;9.07;1.85;;;;;;;12.59;82.99;100255.25;5030643;28;20123;-79
2021/10/24 08:58:51;;;;;;;8.25;1.50;;;;;;;12.66;82.90;100252.56;5037275;28;20075;-79
2021/10/24 09:01:19;;;;;;;13.25;1.95;;;;;;;12.73;82.98;100249.91;5061143;28;20075;-80
2021/10/24 09:04:06;;;;;;;11.40;2.03;;;;;;;12.76;82.88;100251.94;5053952;28;20072;-79
2021/10/24 09:06:59;;;;;;;8.30;1.50;;;;;;;12.78;82.66;100254.38;5061498;28;20044;-79
2021/10/24 09:09:35;;;;;;;9.90;2.20;;;;;;;12.80;82.77;100254.78;5033326;28;20504;-80
2021/10/24 09:12:10;;;;;;;10.27;2.47;;;;;;;12.83;82.71;100249.31;5022183;28;20059;-80
2021/10/24 09:14:46;;;;;;;16.35;3.90;;;;;;;12.92;82.66;100251.03;5042010;28;20099;-79
2021/10/24 09:17:23;;;;;;;6.93;1.40;;;;;;;13.04;82.55;100251.63;5040905;28;20057;-80
2021/10/24 09:19:55;;;;;;;9.20;1.58;;;;;;;13.16;82.13;100250.63;5042356;28;20545;-80
2021/10/24 09:22:30;;;;;;;4.97;1.35;;;;;;;13.25;82.09;100251.16;5058394;28;20041;-80
2021/10/24 09:25:00;;;;;;;14.13;2.95;;;;;;;13.33;82.04;100248.09;5034506;28;20251;-79
2021/10/24 09:27:29;;;;;;;8.38;1.65;;;;;;;13.42;81.81;100250.63;5057163;28;20053;-80
2021/10/24 09:30:11;;;;;;;6.65;1.50;;;;;;;13.49;81.47;100245.16;5056885;28;20040;-80
2021/10/24 09:33:04;;;;;;;10.70;2.03;;;;;;;13.49;81.44;100253.50;5062775;28;20101;-80
2021/10/24 09:35:39;;;;;;;10.43;2.28;;;;;;;13.44;81.31;100245.47;5050224;28;20440;-79
2021/10/24 09:38:18;;;;;;;6.32;1.23;;;;;;;13.42;81.37;100253.41;5047801;28;20047;-80
2021/10/24 09:40:51;;;;;;;6.97;1.90;;;;;;;13.37;81.24;100246.16;5043012;28;20045;-79
2021/10/24 09:43:30;;;;;;;11.98;2.40;;;;;;;13.37;81.33;100250.91;5041623;28;20477;-80
2021/10/24 09:45:57;;;;;;;10.48;1.75;;;;;;;13.39;81.24;100241.06;5034342;28;20423;-79
2021/10/24 09:48:35;;;;;;;13.13;2.22;;;;;;;13.42;81.21;100243.06;4994990;28;20053;-80
2021/10/24 09:51:08;;;;;;;10.23;1.80;;;;;;;13.47;81.10;100250.28;5038688;28;20049;-79
2021/10/24 09:53:37;;;;;;;13.23;3.33;;;;;;;13.52;81.20;100254.72;5016390;28;20481;-80
2021/10/24 09:56:08;;;;;;;14.27;2.28;;;;;;;13.56;81.13;100252.78;5016713;28;20043;-80
2021/10/24 09:58:36;;;;;;;9.77;1.95;;;;;;;13.60;80.79;100248.88;4999642;28;20580;-79
2021/10/24 10:01:08;;;;;;;15.07;4.47;;;;;;;13.65;80.40;100245.75;5033080;28;20033;-84
2021/10/24 10:03:36;;;;;;;;;;;;;;;13.67;79.56;100248.97;5022585;28;20077;-79
2021/10/24 10:06:04;;;;;;;9.40;1.98;;;;;;;13.72;79.92;100256.97;5035423;28;19925;-79
2021/10/24 10:08:42;;;;;;;11.05;2.13;;;;;;;13.75;79.68;100241.50;5015866;28;20052;-79
2021/10/24 10:11:30;;;;;;;11.70;2.60;;;;;;;13.79;79.23;100245.91;5041764;28;20091;-79
2021/10/24 10:14:09;;;;;;;11.73;2.92;;;;;;;13.84;78.76;100240.03;5014250;28;20132;-79
2021/10/24 10:16:39;;;;;;;4.57;1.30;;;;;;;13.89;78.83;100236.94;5041143;28;20046;-79
2021/10/24 10:19:11;;;;;;;5.57;1.85;;;;;;;13.93;78.67;100232.19;5019528;28;20480;-80
2021/10/24 10:21:42;;;;;;;13.45;2.47;;;;;;;13.96;78.44;100245.34;5033667;28;20033;-80
2021/10/24 10:24:30;;;;;;;9.23;1.70;;;;;;;13.99;78.59;100238.22;5035190;28;20045;-80
2021/10/24 10:26:58;;;;;;;4.03;1.50;;;;;;;14.01;78.12;100235.84;5030167;28;20045;-80
2021/10/24 10:29:53;;;;;;;11.02;1.60;;;;;;;14.02;76.87;100243.84;5037803;28;20157;-79
2021/10/24 10:32:23;;;;;;;17.30;2.63;;;;;;;14.06;77.38;100226.38;5032618;28;20136;-80
2021/10/24 10:34:58;;;;;;;5.18;1.25;;;;;;;14.08;76.62;100224.00;5031237;28;20777;-79
2021/10/24 10:37:52;;;;;;;9.88;1.50;;;;;;;14.13;76.86;100237.56;5034484;28;20045;-78
2021/10/24 10:40:20;;;;;;;8.38;1.88;;;;;;;14.16;77.13;100236.81;5024843;28;20139;-80
2021/10/24 10:42:51;;;;;;;11.90;1.73;;;;;;;14.18;76.34;100235.25;5026165;28;20506;-79
2021/10/24 10:45:24;;;;;;;10.90;1.67;;;;;;;14.23;76.52;100237.69;5022400;28;20045;-84
2021/10/24 10:47:56;;;;;;;10.50;1.90;;;;;;;14.26;76.06;100238.91;5011787;28;20081;-83
2021/10/24 10:50:29;;;;;;;9.15;1.80;;;;;;;14.28;75.49;100233.75;5046521;28;20053;-84
2021/10/24 10:53:02;;;;;;;10.60;3.00;;;;;;;14.31;75.53;100238.56;5042766;28;20048;-83
2021/10/24 10:55:58;;;;;;;6.28;1.60;;;;;;;14.34;74.82;100237.81;5029184;28;20049;-83
2021/10/24 10:58:27;;;;;;;6.65;1.58;;;;;;;14.37;75.48;100242.63;4955385;28;20074;-87
2021/10/24 11:00:55;;;;;;;9.27;2.13;;;;;;;14.40;74.98;100237.09;5027003;28;20132;-82
2021/10/24 11:03:47;;;;;;;6.85;1.33;;;;;;;14.42;73.84;100240.31;5014009;28;20463;-79
2021/10/24 11:06:23;;;;;;;7.28;1.67;;;;;;;14.45;72.73;100239.53;5043994;28;20083;-79
2021/10/24 11:08:52;;;;;;;9.75;2.88;;;;;;;14.49;73.76;100232.00;5025328;28;20116;-79
2021/10/24 11:11:38;;;;;;;8.05;1.38;;;;;;;14.49;72.26;100234.78;5024812;28;20046;-81
2021/10/24 11:14:40;;;;;;;8.82;1.67;;;;;;;14.53;71.32;100230.03;5021042;28;20048;-79
2021/10/24 11:17:07;;;;;;;;;;;;;;;14.56;71.75;100234.06;5031560;28;20083;-80
2021/10/24 11:19:37;;;;;;;8.23;1.27;;;;;;;14.60;72.03;100229.31;5029365;28;19927;-80
2021/10/24 11:22:05;;;;;;;15.90;1.73;;;;;;;14.63;72.03;100229.38;5037429;28;20037;-80
2021/10/24 11:24:42;;;;;;;13.50;3.58;;;;;;;14.63;71.51;100234.13;5021001;28;20044;-79
2021/10/24 11:27:12;;;;;;;7.93;1.20;;;;;;;14.68;71.66;100244.91;5039579;28;20044;-81
2021/10/24 11:29:54;;;;;;;4.45;1.20;;;;;;;14.72;70.61;100237.38;5009704;28;20053;-80
2021/10/24 11:32:24;;;;;;;5.05;1.80;;;;;;;14.83;71.24;100243.84;5042897;28;20090;-80
2021/10/24 11:34:54;;;;;;;12.35;2.15;;;;;;;14.94;71.76;100239.16;5046198;28;20047;-80